createdAt,value
2023-01-23T00:00:25.030Z,23.57
2023-01-23T00:02:51.623Z,23.87
2023-01-23T00:05:18.228Z,21.13
2023-01-23T00:07:44.935Z,23.27
2023-01-23T00:10:11.869Z,24.43
2023-01-23T00:12:42.417Z,22.00
2023-01-23T00:15:10.479Z,23.47
2023-01-23T00:17:37.239Z,25.10
2023-01-23T00:20:04.559Z,21.60
2023-01-23T00:22:31.165Z,22.67
2023-01-23T00:24:57.789Z,26.37
2023-01-23T00:27:24.423Z,24.67
2023-01-23T00:29:52.866Z,24.10
2023-01-23T00:32:19.944Z,25.60
2023-01-23T00:34:47.045Z,24.13
2023-01-23T00:37:13.966Z,24.53
2023-01-23T00:39:40.640Z,22.03
2023-01-23T00:42:07.237Z,22.60
2023-01-23T00:44:34.624Z,22.30
2023-01-23T00:47:01.249Z,20.77
2023-01-23T00:49:28.051Z,22.47
2023-01-23T00:51:56.452Z,22.53
2023-01-23T00:54:25.851Z,28.43
2023-01-23T00:56:52.778Z,24.97
2023-01-23T00:59:19.571Z,22.23
2023-01-23T01:01:46.233Z,24.97
2023-01-23T01:04:12.918Z,24.37
2023-01-23T01:06:39.590Z,23.10
2023-01-23T01:09:06.215Z,23.37
2023-01-23T01:11:32.844Z,25.60
2023-01-23T01:14:01.364Z,22.20
2023-01-23T01:16:28.166Z,23.33
2023-01-23T01:18:54.871Z,27.43
2023-01-23T01:21:21.720Z,24.33
2023-01-23T01:23:48.354Z,20.63
2023-01-23T01:26:15.012Z,24.53
2023-01-23T01:28:42.277Z,26.13
2023-01-23T01:31:12.231Z,24.93
2023-01-23T01:33:40.288Z,24.53
2023-01-23T01:36:14.487Z,24.90
2023-01-23T01:38:41.386Z,23.58
2023-01-23T01:41:08.401Z,30.17
2023-01-23T01:43:35.510Z,25.63
2023-01-23T01:46:13.004Z,25.57
2023-01-23T01:48:47.579Z,24.80
2023-01-23T01:51:21.539Z,24.67
2023-01-23T01:53:55.737Z,28.53
2023-01-23T01:56:22.527Z,22.73
2023-01-23T01:58:52.055Z,26.13
2023-01-23T02:01:19.103Z,31.23
2023-01-23T02:03:45.981Z,27.87
2023-01-23T02:06:12.941Z,24.40
2023-01-23T02:08:53.091Z,24.50
2023-01-23T02:11:19.815Z,26.90
2023-01-23T02:13:46.549Z,27.10
2023-01-23T02:16:18.481Z,29.77
2023-01-23T02:18:48.242Z,28.60
2023-01-23T02:21:18.138Z,25.70
2023-01-23T02:23:50.681Z,24.67
2023-01-23T02:26:20.505Z,28.40
2023-01-23T02:28:49.723Z,34.47
2023-01-23T02:31:19.032Z,25.50
2023-01-23T02:33:54.221Z,25.67
2023-01-23T02:36:24.692Z,27.27
2023-01-23T02:39:05.101Z,27.37
2023-01-23T02:41:40.363Z,27.77
2023-01-23T02:44:34.300Z,26.47
2023-01-23T02:47:05.463Z,30.50
2023-01-23T02:49:32.571Z,30.13
2023-01-23T02:51:59.230Z,29.83
2023-01-23T02:54:25.933Z,27.80
2023-01-23T02:56:52.673Z,26.37
2023-01-23T02:59:37.961Z,25.17
2023-01-23T03:02:06.271Z,29.40
2023-01-23T03:04:32.970Z,25.87
2023-01-23T03:06:59.561Z,20.80
2023-01-23T03:09:26.252Z,28.13
2023-01-23T03:11:52.845Z,27.43
2023-01-23T03:14:21.773Z,26.90
2023-01-23T03:16:53.758Z,24.03
2023-01-23T03:19:23.258Z,24.97
2023-01-23T03:21:50.545Z,27.83
2023-01-23T03:24:17.592Z,22.27
2023-01-23T03:26:46.370Z,22.17
2023-01-23T03:29:34.531Z,24.63
2023-01-23T03:32:01.371Z,23.17
2023-01-23T03:34:29.128Z,23.93
2023-01-23T03:36:55.790Z,25.20
2023-01-23T03:39:41.166Z,25.40
2023-01-23T03:42:07.821Z,25.60
2023-01-23T03:44:34.511Z,23.33
2023-01-23T03:47:01.123Z,21.63
2023-01-23T03:49:27.714Z,24.90
2023-01-23T03:51:54.312Z,21.40
2023-01-23T03:54:20.899Z,24.73
2023-01-23T03:56:47.771Z,23.33
2023-01-23T03:59:14.372Z,20.40
2023-01-23T04:01:41.161Z,21.50
2023-01-23T04:04:07.819Z,22.97
2023-01-23T04:06:34.478Z,22.13
2023-01-23T04:09:01.076Z,26.77
2023-01-23T04:11:27.805Z,20.17
2023-01-23T04:13:54.764Z,24.23
2023-01-23T04:16:24.923Z,22.27
2023-01-23T04:18:52.413Z,19.70
2023-01-23T04:21:19.028Z,23.03
2023-01-23T04:23:45.793Z,24.57
2023-01-23T04:26:13.118Z,24.13
2023-01-23T04:28:39.701Z,22.03
2023-01-23T04:31:06.814Z,23.77
2023-01-23T04:33:36.324Z,23.67
2023-01-23T04:36:04.837Z,20.80
2023-01-23T04:38:32.948Z,24.50
2023-01-23T04:41:00.274Z,20.20
2023-01-23T04:43:26.943Z,21.13
2023-01-23T04:45:54.687Z,20.27
2023-01-23T04:48:21.480Z,20.70
2023-01-23T04:50:48.829Z,23.43
2023-01-23T04:53:15.600Z,20.60
2023-01-23T04:55:42.375Z,24.60
2023-01-23T04:58:11.342Z,20.90
2023-01-23T05:00:38.512Z,22.57
2023-01-23T05:03:05.954Z,24.33
2023-01-23T05:05:33.157Z,23.30
2023-01-23T05:07:59.860Z,25.20
2023-01-23T05:10:26.505Z,30.00
2023-01-23T05:12:53.137Z,25.73
2023-01-23T05:15:21.201Z,28.10
2023-01-23T05:17:49.666Z,26.03
2023-01-23T05:20:16.295Z,25.57
2023-01-23T05:22:56.070Z,20.77
2023-01-23T05:25:26.188Z,24.50
2023-01-23T05:27:52.821Z,25.30
2023-01-23T05:30:22.348Z,24.57
2023-01-23T05:32:49.222Z,27.20
2023-01-23T05:35:15.935Z,23.87
2023-01-23T05:37:42.801Z,23.93
2023-01-23T05:40:11.677Z,19.23
2023-01-23T05:42:38.306Z,21.57
2023-01-23T05:45:05.306Z,23.10
2023-01-23T05:47:31.917Z,24.30
2023-01-23T05:49:58.556Z,27.47
2023-01-23T05:52:25.210Z,28.20
2023-01-23T05:54:51.795Z,24.67
2023-01-23T05:57:18.618Z,23.50
2023-01-23T05:59:45.272Z,21.03
2023-01-23T06:02:11.928Z,23.33
2023-01-23T06:04:38.665Z,24.80
2023-01-23T06:07:05.310Z,23.47
2023-01-23T06:09:32.005Z,23.10
2023-01-23T06:11:58.673Z,24.37
2023-01-23T06:14:25.369Z,29.33
2023-01-23T06:16:52.008Z,26.77
2023-01-23T06:19:18.628Z,24.80
2023-01-23T06:21:45.247Z,24.13
2023-01-23T06:24:11.891Z,20.80
2023-01-23T06:26:38.532Z,23.80
2023-01-23T06:29:05.213Z,25.87
2023-01-23T06:31:32.642Z,22.40
2023-01-23T06:33:59.838Z,26.83
2023-01-23T06:36:26.872Z,25.47
2023-01-23T06:38:53.460Z,27.57
2023-01-23T06:41:20.410Z,27.97
2023-01-23T06:43:47.155Z,24.83
2023-01-23T06:46:13.797Z,24.50
2023-01-23T06:48:40.451Z,23.70
2023-01-23T06:51:07.122Z,23.10
2023-01-23T06:53:33.857Z,24.33
2023-01-23T06:56:05.929Z,26.27
2023-01-23T06:58:33.110Z,19.23
2023-01-23T07:00:59.773Z,30.43
2023-01-23T07:03:26.440Z,20.97
2023-01-23T07:05:53.147Z,25.80
2023-01-23T07:08:19.849Z,25.37
2023-01-23T07:10:49.351Z,22.33
2023-01-23T07:13:16.145Z,26.43
2023-01-23T07:15:42.867Z,24.70
2023-01-23T07:18:10.099Z,29.57
2023-01-23T07:20:38.297Z,23.40
2023-01-23T07:23:04.975Z,24.43
2023-01-23T07:25:31.554Z,23.93
2023-01-23T07:27:58.236Z,25.87
2023-01-23T07:30:26.087Z,23.30
2023-01-23T07:32:52.799Z,27.37
2023-01-23T07:35:19.426Z,21.80
2023-01-23T07:37:46.014Z,25.53
2023-01-23T07:40:13.110Z,24.87
2023-01-23T07:42:41.887Z,27.37
2023-01-23T07:45:09.887Z,25.47
2023-01-23T07:47:37.367Z,27.13
2023-01-23T07:50:04.158Z,22.77
2023-01-23T07:52:30.737Z,25.77
2023-01-23T07:54:57.456Z,26.57
2023-01-23T07:57:24.051Z,25.73
2023-01-23T07:59:50.684Z,24.73
2023-01-23T08:02:17.288Z,24.03
2023-01-23T08:04:43.943Z,26.20
2023-01-23T08:07:10.565Z,27.80
2023-01-23T08:09:37.200Z,27.93
2023-01-23T08:12:04.024Z,25.17
2023-01-23T08:14:30.764Z,26.90
2023-01-23T08:16:57.537Z,25.57
2023-01-23T08:19:27.416Z,25.60
2023-01-23T08:21:54.298Z,25.13
2023-01-23T08:24:21.829Z,29.30
2023-01-23T08:26:48.727Z,25.40
2023-01-23T08:29:15.436Z,24.77
2023-01-23T08:31:42.197Z,24.93
2023-01-23T08:34:08.851Z,24.43
2023-01-23T08:36:35.475Z,27.57
2023-01-23T08:39:02.157Z,27.53
2023-01-23T08:41:28.888Z,23.63
2023-01-23T08:43:57.552Z,25.40
2023-01-23T08:46:24.181Z,27.33
2023-01-23T08:48:50.840Z,24.27
2023-01-23T08:51:17.512Z,22.90
2023-01-23T08:53:44.164Z,25.37
2023-01-23T08:56:16.835Z,24.90
2023-01-23T08:58:44.317Z,25.47
2023-01-23T09:01:12.655Z,23.30
2023-01-23T09:03:39.329Z,20.57
2023-01-23T09:06:06.627Z,21.67
2023-01-23T09:08:34.711Z,25.43
2023-01-23T09:11:03.061Z,24.87
2023-01-23T09:13:30.193Z,24.67
2023-01-23T09:15:56.974Z,23.10
2023-01-23T09:18:24.965Z,23.47
2023-01-23T09:20:52.439Z,22.37
2023-01-23T09:23:19.363Z,21.53
2023-01-23T09:25:46.216Z,23.60
2023-01-23T09:28:13.032Z,23.37
2023-01-23T09:30:40.221Z,20.50
2023-01-23T09:33:07.135Z,21.17
2023-01-23T09:35:34.669Z,21.50
2023-01-23T09:38:06.813Z,23.70
2023-01-23T09:40:49.171Z,20.10
2023-01-23T09:43:46.498Z,20.80
2023-01-23T09:46:41.399Z,23.97
2023-01-23T09:49:21.574Z,19.13
2023-01-23T09:51:58.312Z,19.77
2023-01-23T09:54:31.790Z,18.67
2023-01-23T09:57:01.862Z,22.30
2023-01-23T09:59:53.639Z,21.43
2023-01-23T10:02:24.002Z,25.00
2023-01-23T10:04:53.957Z,24.13
2023-01-23T10:07:43.276Z,24.13
2023-01-23T10:10:36.882Z,20.27
2023-01-23T10:13:17.037Z,16.37
2023-01-23T10:16:06.701Z,21.00
2023-01-23T10:18:39.895Z,20.17
2023-01-23T10:21:13.301Z,18.38
2023-01-23T10:23:48.393Z,19.37
2023-01-23T10:26:18.986Z,18.73
2023-01-23T10:28:46.710Z,17.80
2023-01-23T10:31:39.705Z,18.33
2023-01-23T10:34:09.330Z,20.63
2023-01-23T10:36:54.669Z,16.90
2023-01-23T10:39:41.968Z,22.67
2023-01-23T10:42:11.822Z,18.57
2023-01-23T10:44:38.472Z,20.17
2023-01-23T10:47:14.622Z,19.70
2023-01-23T10:49:45.013Z,17.93
2023-01-23T10:52:38.866Z,21.13
2023-01-23T10:55:26.672Z,22.73
2023-01-23T10:57:56.056Z,16.80
2023-01-23T11:00:45.875Z,21.20
2023-01-23T11:03:27.653Z,21.97
2023-01-23T11:06:03.891Z,17.33
2023-01-23T11:08:31.912Z,20.23
2023-01-23T11:11:19.218Z,18.67
2023-01-23T11:14:24.234Z,20.07
2023-01-23T11:17:18.913Z,19.75
2023-01-23T11:19:47.444Z,25.35
2023-01-23T11:22:32.097Z,20.10
2023-01-23T11:27:31.045Z,17.40
2023-01-23T11:30:09.158Z,19.57
2023-01-23T11:32:43.205Z,20.77
2023-01-23T11:35:13.935Z,19.30
2023-01-23T11:37:41.058Z,19.70
2023-01-23T11:40:11.789Z,17.03
2023-01-23T11:42:41.001Z,14.07
2023-01-23T11:45:13.634Z,18.73
2023-01-23T11:48:07.959Z,20.97
2023-01-23T11:50:55.805Z,17.33
2023-01-23T11:53:43.669Z,18.07
2023-01-23T11:56:23.072Z,18.00
2023-01-23T11:58:58.814Z,18.87
2023-01-23T12:02:03.989Z,18.77
2023-01-23T12:04:39.979Z,18.77
2023-01-23T12:07:23.325Z,18.60
2023-01-23T12:10:02.089Z,16.60
2023-01-23T12:12:34.639Z,20.37
2023-01-23T12:15:19.701Z,16.30
2023-01-23T12:18:18.845Z,19.53
2023-01-23T12:21:10.263Z,17.37
2023-01-23T12:23:59.635Z,16.87
2023-01-23T12:26:28.430Z,18.40
2023-01-23T12:29:16.457Z,18.83
2023-01-23T12:32:09.497Z,16.80
2023-01-23T12:34:51.339Z,17.53
2023-01-23T12:37:36.016Z,16.63
2023-01-23T12:42:55.624Z,17.98
2023-01-23T12:45:24.453Z,17.73
2023-01-23T12:48:07.177Z,17.10
2023-01-23T12:50:47.613Z,20.47
2023-01-23T12:53:17.625Z,19.33
2023-01-23T12:56:23.306Z,17.67
2023-01-23T12:59:19.278Z,18.27
2023-01-23T13:01:55.755Z,20.40
2023-01-23T13:04:42.237Z,15.17
2023-01-23T13:07:21.068Z,15.00
2023-01-23T13:10:12.708Z,17.27
2023-01-23T13:12:39.593Z,19.67
2023-01-23T13:15:27.759Z,18.57
2023-01-23T13:20:52.452Z,19.03
2023-01-23T13:23:29.420Z,20.13
2023-01-23T13:26:23.155Z,18.30
2023-01-23T13:28:57.688Z,20.03
2023-01-23T13:31:47.172Z,18.80
2023-01-23T13:34:17.175Z,16.97
2023-01-23T13:36:48.420Z,21.23
2023-01-23T13:39:18.050Z,19.27
2023-01-23T13:41:49.680Z,18.73
2023-01-23T13:44:41.512Z,20.13
2023-01-23T14:22:15.780Z,29.13
2023-01-23T14:24:47.786Z,26.50
2023-01-23T14:27:30.208Z,22.63
2023-01-23T14:29:58.639Z,22.00
2023-01-23T14:32:28.055Z,27.23
2023-01-23T14:34:54.685Z,22.37
2023-01-23T14:37:21.424Z,23.90
2023-01-23T14:39:53.109Z,23.70
2023-01-23T14:42:25.100Z,22.67
2023-01-23T14:44:52.257Z,24.27
2023-01-23T14:47:25.077Z,28.63
2023-01-23T14:49:51.954Z,23.27
2023-01-23T14:52:27.081Z,22.80
2023-01-23T14:54:55.413Z,24.97
2023-01-23T14:57:24.221Z,23.73
2023-01-23T14:59:53.617Z,23.93
2023-01-23T15:02:40.620Z,23.27
2023-01-23T15:05:13.329Z,19.67
2023-01-23T15:07:57.104Z,25.40
2023-01-23T15:10:44.260Z,21.30
2023-01-23T15:13:22.633Z,23.57
2023-01-23T15:15:57.508Z,21.83
2023-01-23T15:18:29.253Z,25.90
2023-01-23T15:21:02.947Z,24.00
2023-01-23T15:23:34.960Z,19.63
2023-01-23T15:26:19.709Z,22.67
2023-01-23T15:28:57.293Z,23.10
2023-01-23T15:31:40.214Z,21.67
2023-01-23T15:34:16.206Z,20.57
2023-01-23T15:36:56.194Z,19.70
2023-01-23T15:39:27.752Z,21.27
2023-01-23T15:42:00.236Z,19.53
2023-01-23T15:44:29.062Z,19.60
2023-01-23T15:46:56.764Z,24.77
2023-01-23T15:49:26.064Z,22.13
2023-01-23T15:51:56.400Z,16.20
2023-01-23T15:54:31.383Z,20.70
2023-01-23T15:57:07.197Z,21.07
2023-01-23T15:59:35.301Z,20.43
2023-01-23T16:02:01.881Z,22.07
2023-01-23T16:04:28.516Z,18.37
2023-01-23T16:06:55.173Z,19.70
2023-01-23T16:09:30.077Z,15.10
2023-01-23T16:11:57.688Z,18.80
2023-01-23T16:14:24.383Z,18.80
2023-01-23T16:16:51.076Z,19.40
2023-01-23T16:19:17.748Z,19.10
2023-01-23T16:21:49.943Z,21.63
2023-01-23T16:24:23.431Z,16.33
2023-01-23T16:26:50.713Z,18.53
2023-01-23T16:29:32.108Z,18.23
2023-01-23T16:31:59.791Z,16.57
2023-01-23T16:34:26.607Z,19.83
2023-01-23T16:36:55.402Z,16.33
2023-01-23T16:39:26.079Z,17.60
2023-01-23T16:41:54.918Z,15.23
2023-01-23T16:44:24.957Z,16.67
2023-01-23T16:46:52.612Z,18.53
2023-01-23T16:49:19.860Z,17.43
2023-01-23T16:51:51.160Z,17.00
2023-01-23T16:54:19.511Z,21.67
2023-01-23T16:56:48.065Z,20.07
2023-01-23T16:59:19.227Z,19.33
2023-01-23T17:01:47.898Z,17.50
2023-01-23T17:04:19.445Z,17.13
2023-01-23T17:06:46.395Z,18.37
2023-01-23T17:09:13.724Z,16.13
2023-01-23T17:11:42.623Z,16.13
2023-01-23T17:14:19.217Z,18.77
2023-01-23T17:16:47.673Z,20.33
2023-01-23T17:19:23.391Z,18.07
2023-01-23T17:21:50.396Z,20.37
2023-01-23T17:24:17.703Z,21.73
2023-01-23T17:26:44.694Z,19.97
2023-01-23T17:29:11.419Z,19.63
2023-01-23T17:31:38.875Z,18.80
2023-01-23T17:34:06.504Z,17.20
2023-01-23T17:36:33.499Z,21.20
2023-01-23T17:39:00.279Z,19.00
2023-01-23T17:41:27.010Z,20.10
2023-01-23T17:43:53.708Z,22.50
2023-01-23T17:46:26.851Z,24.57
2023-01-23T17:48:54.472Z,18.90
2023-01-23T17:51:22.057Z,19.97
2023-01-23T17:53:49.113Z,16.83
2023-01-23T17:56:15.971Z,20.93
2023-01-23T17:58:43.022Z,18.33
2023-01-23T18:01:22.305Z,18.50
2023-01-23T18:03:52.983Z,22.33
2023-01-23T18:06:19.984Z,20.77
2023-01-23T18:08:47.335Z,21.30
2023-01-23T18:11:33.081Z,20.80
2023-01-23T18:14:19.965Z,19.73
2023-01-23T18:16:48.256Z,23.10
2023-01-23T18:19:20.545Z,21.73
2023-01-23T18:21:50.388Z,22.57
2023-01-23T18:24:24.757Z,19.23
2023-01-23T18:27:05.051Z,22.50
2023-01-23T18:29:42.166Z,23.07
2023-01-23T18:32:32.289Z,26.97
2023-01-23T18:35:08.175Z,20.47
2023-01-23T18:38:03.404Z,24.33
2023-01-23T18:40:37.467Z,25.15
2023-01-23T18:43:34.756Z,26.55
2023-01-23T18:46:01.843Z,25.67
2023-01-23T18:48:28.722Z,26.97
2023-01-23T18:51:06.158Z,27.80
2023-01-23T18:53:43.552Z,27.07
2023-01-23T18:56:14.708Z,21.33
2023-01-23T18:59:09.956Z,24.00
2023-01-23T19:01:45.544Z,23.70
2023-01-23T19:04:14.845Z,20.43
2023-01-23T19:06:42.028Z,23.23
2023-01-23T19:09:19.862Z,22.00
2023-01-23T19:11:50.599Z,28.23
2023-01-23T19:14:40.310Z,28.50
2023-01-23T19:17:28.957Z,22.97
2023-01-23T19:20:16.808Z,26.47
2023-01-23T19:22:58.052Z,28.80
2023-01-23T19:25:24.900Z,31.33
2023-01-23T19:27:52.924Z,30.07
2023-01-23T19:30:21.417Z,28.53
2023-01-23T19:32:49.701Z,27.97
2023-01-23T19:35:17.768Z,27.23
2023-01-23T19:37:45.282Z,25.60
2023-01-23T19:40:14.041Z,27.03
2023-01-23T19:42:52.241Z,25.63
2023-01-23T19:45:23.284Z,28.17
2023-01-23T19:47:50.645Z,24.47
2023-01-23T19:50:17.945Z,23.83
2023-01-23T19:52:45.714Z,27.03
2023-01-23T19:55:23.172Z,30.83
2023-01-23T19:57:50.129Z,29.60
2023-01-23T20:00:17.538Z,26.83
2023-01-23T20:02:44.207Z,28.43
2023-01-23T20:05:11.918Z,25.63
2023-01-23T20:07:38.739Z,25.53
2023-01-23T20:10:07.447Z,21.60
2023-01-23T20:12:52.347Z,21.87
2023-01-23T20:15:21.970Z,27.27
2023-01-23T20:17:49.178Z,28.40
2023-01-23T20:20:16.332Z,28.83
2023-01-23T20:22:43.591Z,27.70
2023-01-23T20:25:15.553Z,24.27
2023-01-23T20:27:44.279Z,23.93
2023-01-23T20:30:16.791Z,33.30
2023-01-23T20:32:43.752Z,25.33
2023-01-23T20:35:10.849Z,30.43
2023-01-23T20:37:37.490Z,25.03
2023-01-23T20:40:04.619Z,23.83
2023-01-23T20:42:31.190Z,24.97
2023-01-23T20:44:57.795Z,29.73
2023-01-23T20:47:24.436Z,31.47
2023-01-23T20:49:51.101Z,28.37
2023-01-23T20:52:39.447Z,29.17
2023-01-23T20:55:06.477Z,26.63
2023-01-23T20:57:51.839Z,32.40
2023-01-23T21:00:18.962Z,31.53
2023-01-23T21:02:45.646Z,23.67
2023-01-23T21:05:12.301Z,27.60
2023-01-23T21:07:38.922Z,27.90
2023-01-23T21:10:05.955Z,27.90
2023-01-23T21:12:33.118Z,24.90
2023-01-23T21:15:03.057Z,28.17
2023-01-23T21:17:29.703Z,27.47
2023-01-23T21:19:56.358Z,25.30
2023-01-23T21:22:22.996Z,25.57
2023-01-23T21:24:49.645Z,26.67
2023-01-23T21:27:21.008Z,23.67
2023-01-23T21:29:48.377Z,22.70
2023-01-23T21:32:15.166Z,27.60
2023-01-23T21:34:44.171Z,22.53
2023-01-23T21:37:10.938Z,19.87
2023-01-23T21:39:38.800Z,20.33
2023-01-23T21:42:08.147Z,22.10
2023-01-23T21:44:35.824Z,20.37
2023-01-23T21:47:03.101Z,22.63
2023-01-23T21:49:31.448Z,14.93
2023-01-23T21:51:58.128Z,20.03
2023-01-23T21:54:24.800Z,20.73
2023-01-23T21:56:51.413Z,18.77
2023-01-23T21:59:18.113Z,22.33
2023-01-23T22:01:46.463Z,16.47
2023-01-23T22:04:24.227Z,13.27
2023-01-23T22:06:54.199Z,16.83
2023-01-23T22:09:25.854Z,12.93
2023-01-23T22:11:53.435Z,12.27
2023-01-23T22:14:20.024Z,19.33
2023-01-23T22:16:49.449Z,13.77
2023-01-23T22:19:24.524Z,13.63
2023-01-23T22:21:51.464Z,12.97
2023-01-23T22:24:18.185Z,14.37
2023-01-23T22:26:46.630Z,11.47
2023-01-23T22:29:13.890Z,12.33
2023-01-23T22:31:40.996Z,10.83
2023-01-23T22:34:07.777Z,14.57
2023-01-23T22:36:34.417Z,11.47
2023-01-23T22:39:01.047Z,11.90
2023-01-23T22:41:28.597Z,12.23
2023-01-23T22:43:56.455Z,12.53
2023-01-23T22:46:23.715Z,8.73
2023-01-23T22:48:51.225Z,8.80
2023-01-23T22:51:24.613Z,8.80
2023-01-23T22:53:52.609Z,9.82
2023-01-23T22:56:19.666Z,9.93
2023-01-23T22:58:47.587Z,8.50
2023-01-23T23:01:14.621Z,10.40
2023-01-23T23:03:41.628Z,11.50
2023-01-23T23:06:09.219Z,11.83
2023-01-23T23:08:37.910Z,10.17
2023-01-23T23:11:10.320Z,10.20
2023-01-23T23:13:38.613Z,9.10
2023-01-23T23:16:30.848Z,8.93
2023-01-23T23:18:59.441Z,8.83
2023-01-23T23:21:31.633Z,9.90
2023-01-23T23:23:59.844Z,8.63
2023-01-23T23:26:27.564Z,11.23
2023-01-23T23:28:55.001Z,9.30
2023-01-23T23:31:21.725Z,11.30
2023-01-23T23:33:48.389Z,9.60
2023-01-23T23:36:15.074Z,10.90
2023-01-23T23:38:41.755Z,9.20
2023-01-23T23:41:11.668Z,9.00
2023-01-23T23:43:38.660Z,8.77
2023-01-23T23:46:06.740Z,8.10
2023-01-23T23:48:35.507Z,8.93
2023-01-23T23:51:03.107Z,9.33
2023-01-23T23:53:30.331Z,10.03
2023-01-23T23:55:57.092Z,9.33
2023-01-23T23:58:24.256Z,9.20
